sensor_id;sensor_type;location;lat;lon;timestamp;temperature;humidity
14192;DHT22;7177;48.572;7.838;2022-07-06T00:01:18;20.00;83.50
14192;DHT22;7177;48.572;7.838;2022-07-06T00:03:44;19.90;84.40
14192;DHT22;7177;48.572;7.838;2022-07-06T00:06:10;19.90;84.50
14192;DHT22;7177;48.572;7.838;2022-07-06T00:08:35;19.90;85.10
14192;DHT22;7177;48.572;7.838;2022-07-06T00:11:01;19.80;85.80
14192;DHT22;7177;48.572;7.838;2022-07-06T00:13:27;19.80;86.70
14192;DHT22;7177;48.572;7.838;2022-07-06T00:15:53;19.70;87.20
14192;DHT22;7177;48.572;7.838;2022-07-06T00:18:18;19.70;87.80
14192;DHT22;7177;48.572;7.838;2022-07-06T00:20:44;19.60;88.00
14192;DHT22;7177;48.572;7.838;2022-07-06T00:23:10;19.60;88.50
14192;DHT22;7177;48.572;7.838;2022-07-06T00:25:35;19.60;89.10
14192;DHT22;7177;48.572;7.838;2022-07-06T00:28:01;19.50;89.40
14192;DHT22;7177;48.572;7.838;2022-07-06T00:30:26;19.40;90.40
14192;DHT22;7177;48.572;7.838;2022-07-06T00:32:52;19.40;90.40
14192;DHT22;7177;48.572;7.838;2022-07-06T00:35:17;19.30;91.20
14192;DHT22;7177;48.572;7.838;2022-07-06T00:37:43;19.30;91.20
14192;DHT22;7177;48.572;7.838;2022-07-06T00:40:08;19.20;91.50
14192;DHT22;7177;48.572;7.838;2022-07-06T00:42:42;19.10;92.00
14192;DHT22;7177;48.572;7.838;2022-07-06T00:45:08;19.10;92.00
14192;DHT22;7177;48.572;7.838;2022-07-06T00:47:34;19.00;92.80
14192;DHT22;7177;48.572;7.838;2022-07-06T00:49:59;19.00;93.10
14192;DHT22;7177;48.572;7.838;2022-07-06T00:52:41;19.00;93.50
14192;DHT22;7177;48.572;7.838;2022-07-06T00:55:08;19.00;93.90
14192;DHT22;7177;48.572;7.838;2022-07-06T00:57:34;19.00;94.10
14192;DHT22;7177;48.572;7.838;2022-07-06T01:00:02;18.90;94.60
14192;DHT22;7177;48.572;7.838;2022-07-06T01:02:31;18.80;95.20
14192;DHT22;7177;48.572;7.838;2022-07-06T01:04:56;18.80;95.30
14192;DHT22;7177;48.572;7.838;2022-07-06T01:07:22;18.70;95.70
14192;DHT22;7177;48.572;7.838;2022-07-06T01:09:48;18.70;95.90
14192;DHT22;7177;48.572;7.838;2022-07-06T01:12:13;18.50;96.70
14192;DHT22;7177;48.572;7.838;2022-07-06T01:14:39;18.40;97.30
14192;DHT22;7177;48.572;7.838;2022-07-06T01:17:05;18.40;97.90
14192;DHT22;7177;48.572;7.838;2022-07-06T01:19:31;18.30;98.10
14192;DHT22;7177;48.572;7.838;2022-07-06T01:21:57;18.20;99.30
14192;DHT22;7177;48.572;7.838;2022-07-06T01:24:22;18.20;99.60
14192;DHT22;7177;48.572;7.838;2022-07-06T01:26:48;17.90;99.90
14192;DHT22;7177;48.572;7.838;2022-07-06T01:29:13;17.80;99.90
14192;DHT22;7177;48.572;7.838;2022-07-06T01:31:49;17.70;99.90
14192;DHT22;7177;48.572;7.838;2022-07-06T01:34:18;17.60;99.90
14192;DHT22;7177;48.572;7.838;2022-07-06T01:36:44;17.50;99.90
14192;DHT22;7177;48.572;7.838;2022-07-06T01:39:10;17.40;99.90
14192;DHT22;7177;48.572;7.838;2022-07-06T01:41:36;17.30;99.90
14192;DHT22;7177;48.572;7.838;2022-07-06T01:44:02;17.30;99.90
14192;DHT22;7177;48.572;7.838;2022-07-06T01:46:28;17.30;99.90
14192;DHT22;7177;48.572;7.838;2022-07-06T01:48:54;17.30;99.90
14192;DHT22;7177;48.572;7.838;2022-07-06T01:51:19;17.20;99.90
14192;DHT22;7177;48.572;7.838;2022-07-06T01:53:45;17.20;99.90
14192;DHT22;7177;48.572;7.838;2022-07-06T01:56:11;17.20;99.90
14192;DHT22;7177;48.572;7.838;2022-07-06T01:58:38;17.20;99.90
14192;DHT22;7177;48.572;7.838;2022-07-06T02:01:16;17.20;99.90
14192;DHT22;7177;48.572;7.838;2022-07-06T02:03:42;17.10;99.90
14192;DHT22;7177;48.572;7.838;2022-07-06T02:06:08;16.90;99.90
14192;DHT22;7177;48.572;7.838;2022-07-06T02:08:34;16.80;99.90
14192;DHT22;7177;48.572;7.838;2022-07-06T02:11:04;16.70;99.90
14192;DHT22;7177;48.572;7.838;2022-07-06T02:13:30;16.70;99.90
14192;DHT22;7177;48.572;7.838;2022-07-06T02:15:55;16.60;99.90
14192;DHT22;7177;48.572;7.838;2022-07-06T02:18:21;16.60;99.90
14192;DHT22;7177;48.572;7.838;2022-07-06T02:20:46;16.70;99.90
14192;DHT22;7177;48.572;7.838;2022-07-06T02:23:12;16.60;99.90
14192;DHT22;7177;48.572;7.838;2022-07-06T02:25:38;16.60;99.90
14192;DHT22;7177;48.572;7.838;2022-07-06T02:28:03;16.60;99.90
14192;DHT22;7177;48.572;7.838;2022-07-06T02:30:29;16.60;99.90
14192;DHT22;7177;48.572;7.838;2022-07-06T02:32:55;16.60;99.90
14192;DHT22;7177;48.572;7.838;2022-07-06T02:35:20;16.70;99.90
14192;DHT22;7177;48.572;7.838;2022-07-06T02:37:46;16.70;99.90
14192;DHT22;7177;48.572;7.838;2022-07-06T02:40:12;16.70;99.90
14192;DHT22;7177;48.572;7.838;2022-07-06T02:42:37;16.80;99.90
14192;DHT22;7177;48.572;7.838;2022-07-06T02:45:04;16.80;99.90
14192;DHT22;7177;48.572;7.838;2022-07-06T02:47:29;16.70;99.90
14192;DHT22;7177;48.572;7.838;2022-07-06T02:49:55;16.70;99.90
14192;DHT22;7177;48.572;7.838;2022-07-06T02:52:20;16.70;99.90
14192;DHT22;7177;48.572;7.838;2022-07-06T02:54:46;16.60;99.90
14192;DHT22;7177;48.572;7.838;2022-07-06T02:57:11;16.60;99.90
14192;DHT22;7177;48.572;7.838;2022-07-06T02:59:37;16.50;99.90
14192;DHT22;7177;48.572;7.838;2022-07-06T03:02:06;16.50;99.90
14192;DHT22;7177;48.572;7.838;2022-07-06T03:04:32;16.50;99.90
14192;DHT22;7177;48.572;7.838;2022-07-06T03:06:57;16.50;99.90
14192;DHT22;7177;48.572;7.838;2022-07-06T03:09:23;16.50;99.90
14192;DHT22;7177;48.572;7.838;2022-07-06T03:11:49;16.50;99.90
14192;DHT22;7177;48.572;7.838;2022-07-06T03:14:15;16.50;99.90
14192;DHT22;7177;48.572;7.838;2022-07-06T03:16:40;16.50;99.90
14192;DHT22;7177;48.572;7.838;2022-07-06T03:19:06;16.40;99.90
14192;DHT22;7177;48.572;7.838;2022-07-06T03:21:31;16.40;99.90
14192;DHT22;7177;48.572;7.838;2022-07-06T03:23:57;16.40;99.90
14192;DHT22;7177;48.572;7.838;2022-07-06T03:26:22;16.40;99.90
14192;DHT22;7177;48.572;7.838;2022-07-06T03:28:48;16.30;99.90
14192;DHT22;7177;48.572;7.838;2022-07-06T03:31:13;16.30;99.90
14192;DHT22;7177;48.572;7.838;2022-07-06T03:33:39;16.30;99.90
14192;DHT22;7177;48.572;7.838;2022-07-06T03:36:05;16.20;99.90
14192;DHT22;7177;48.572;7.838;2022-07-06T03:38:30;16.20;99.90
14192;DHT22;7177;48.572;7.838;2022-07-06T03:40:56;16.30;99.90
14192;DHT22;7177;48.572;7.838;2022-07-06T03:43:21;16.30;99.90
14192;DHT22;7177;48.572;7.838;2022-07-06T03:45:47;16.30;99.90
14192;DHT22;7177;48.572;7.838;2022-07-06T03:48:12;16.30;99.90
14192;DHT22;7177;48.572;7.838;2022-07-06T03:50:38;16.30;99.90
14192;DHT22;7177;48.572;7.838;2022-07-06T03:53:03;16.20;99.90
14192;DHT22;7177;48.572;7.838;2022-07-06T03:55:29;16.30;99.90
14192;DHT22;7177;48.572;7.838;2022-07-06T03:57:55;16.20;99.90
14192;DHT22;7177;48.572;7.838;2022-07-06T04:00:20;16.20;99.90
14192;DHT22;7177;48.572;7.838;2022-07-06T04:02:46;16.20;99.90
14192;DHT22;7177;48.572;7.838;2022-07-06T04:05:12;16.20;99.90
14192;DHT22;7177;48.572;7.838;2022-07-06T04:07:37;16.40;99.90
14192;DHT22;7177;48.572;7.838;2022-07-06T04:10:03;17.00;99.90
14192;DHT22;7177;48.572;7.838;2022-07-06T04:12:28;17.60;99.90
14192;DHT22;7177;48.572;7.838;2022-07-06T04:14:56;18.00;99.90
14192;DHT22;7177;48.572;7.838;2022-07-06T04:17:23;18.40;99.90
14192;DHT22;7177;48.572;7.838;2022-07-06T04:20:08;18.70;99.90
14192;DHT22;7177;48.572;7.838;2022-07-06T04:22:37;18.90;99.90
14192;DHT22;7177;48.572;7.838;2022-07-06T04:25:03;19.20;99.90
14192;DHT22;7177;48.572;7.838;2022-07-06T04:27:28;19.20;99.90
14192;DHT22;7177;48.572;7.838;2022-07-06T04:29:54;19.30;99.90
14192;DHT22;7177;48.572;7.838;2022-07-06T04:32:20;19.30;99.90
14192;DHT22;7177;48.572;7.838;2022-07-06T04:34:45;19.40;99.90
14192;DHT22;7177;48.572;7.838;2022-07-06T04:37:11;19.40;99.90
14192;DHT22;7177;48.572;7.838;2022-07-06T04:39:36;19.40;99.90
14192;DHT22;7177;48.572;7.838;2022-07-06T04:42:02;19.40;99.90
14192;DHT22;7177;48.572;7.838;2022-07-06T04:44:27;19.40;99.90
14192;DHT22;7177;48.572;7.838;2022-07-06T04:46:53;19.50;99.90
14192;DHT22;7177;48.572;7.838;2022-07-06T04:49:19;19.60;99.90
14192;DHT22;7177;48.572;7.838;2022-07-06T04:51:45;19.60;99.90
14192;DHT22;7177;48.572;7.838;2022-07-06T04:54:10;19.60;99.90
14192;DHT22;7177;48.572;7.838;2022-07-06T04:56:36;19.70;99.90
14192;DHT22;7177;48.572;7.838;2022-07-06T04:59:01;19.70;99.90
14192;DHT22;7177;48.572;7.838;2022-07-06T05:01:27;19.80;99.90
14192;DHT22;7177;48.572;7.838;2022-07-06T05:03:52;19.90;99.90
14192;DHT22;7177;48.572;7.838;2022-07-06T05:06:18;20.10;99.90
14192;DHT22;7177;48.572;7.838;2022-07-06T05:08:45;20.20;99.90
14192;DHT22;7177;48.572;7.838;2022-07-06T05:11:11;20.30;99.90
14192;DHT22;7177;48.572;7.838;2022-07-06T05:13:36;20.40;99.90
14192;DHT22;7177;48.572;7.838;2022-07-06T05:16:02;20.60;99.90
14192;DHT22;7177;48.572;7.838;2022-07-06T05:18:27;20.70;99.90
14192;DHT22;7177;48.572;7.838;2022-07-06T05:20:53;20.70;99.90
14192;DHT22;7177;48.572;7.838;2022-07-06T05:23:18;20.80;99.90
14192;DHT22;7177;48.572;7.838;2022-07-06T05:25:44;20.90;99.90
14192;DHT22;7177;48.572;7.838;2022-07-06T05:28:09;20.90;99.90
14192;DHT22;7177;48.572;7.838;2022-07-06T05:30:35;21.00;99.90
14192;DHT22;7177;48.572;7.838;2022-07-06T05:33:00;21.00;99.90
14192;DHT22;7177;48.572;7.838;2022-07-06T05:35:26;21.10;99.90
14192;DHT22;7177;48.572;7.838;2022-07-06T05:37:51;21.10;99.90
14192;DHT22;7177;48.572;7.838;2022-07-06T05:40:17;21.30;99.90
14192;DHT22;7177;48.572;7.838;2022-07-06T05:42:42;21.30;99.90
14192;DHT22;7177;48.572;7.838;2022-07-06T05:45:08;21.30;99.90
14192;DHT22;7177;48.572;7.838;2022-07-06T05:47:34;21.40;99.90
14192;DHT22;7177;48.572;7.838;2022-07-06T05:50:18;21.40;99.90
14192;DHT22;7177;48.572;7.838;2022-07-06T05:52:45;21.40;99.90
14192;DHT22;7177;48.572;7.838;2022-07-06T05:55:19;21.30;99.90
14192;DHT22;7177;48.572;7.838;2022-07-06T05:57:45;21.20;99.90
14192;DHT22;7177;48.572;7.838;2022-07-06T06:00:11;21.20;99.90
14192;DHT22;7177;48.572;7.838;2022-07-06T06:02:40;21.30;99.90
14192;DHT22;7177;48.572;7.838;2022-07-06T06:05:10;21.40;99.90
14192;DHT22;7177;48.572;7.838;2022-07-06T06:07:36;21.50;99.90
14192;DHT22;7177;48.572;7.838;2022-07-06T06:10:05;21.60;99.90
14192;DHT22;7177;48.572;7.838;2022-07-06T06:12:31;21.70;99.90
14192;DHT22;7177;48.572;7.838;2022-07-06T06:14:56;21.80;99.90
14192;DHT22;7177;48.572;7.838;2022-07-06T06:17:22;21.70;99.90
14192;DHT22;7177;48.572;7.838;2022-07-06T06:19:47;21.80;99.90
14192;DHT22;7177;48.572;7.838;2022-07-06T06:22:13;21.90;99.90
14192;DHT22;7177;48.572;7.838;2022-07-06T06:24:39;21.90;99.90
14192;DHT22;7177;48.572;7.838;2022-07-06T06:27:05;21.80;99.90
14192;DHT22;7177;48.572;7.838;2022-07-06T06:29:30;21.80;99.90
14192;DHT22;7177;48.572;7.838;2022-07-06T06:31:56;21.80;99.90
14192;DHT22;7177;48.572;7.838;2022-07-06T06:34:21;21.60;99.90
14192;DHT22;7177;48.572;7.838;2022-07-06T06:36:47;21.60;99.90
14192;DHT22;7177;48.572;7.838;2022-07-06T06:39:13;21.70;99.90
14192;DHT22;7177;48.572;7.838;2022-07-06T06:41:38;21.90;99.90
14192;DHT22;7177;48.572;7.838;2022-07-06T06:44:04;21.90;99.90
14192;DHT22;7177;48.572;7.838;2022-07-06T06:46:29;22.00;99.90
14192;DHT22;7177;48.572;7.838;2022-07-06T06:48:55;22.00;99.90
14192;DHT22;7177;48.572;7.838;2022-07-06T06:51:21;22.00;99.90
14192;DHT22;7177;48.572;7.838;2022-07-06T06:53:47;22.10;99.90
14192;DHT22;7177;48.572;7.838;2022-07-06T06:56:12;22.10;99.90
14192;DHT22;7177;48.572;7.838;2022-07-06T06:58:38;22.10;99.90
14192;DHT22;7177;48.572;7.838;2022-07-06T07:01:04;22.10;99.90
14192;DHT22;7177;48.572;7.838;2022-07-06T07:03:30;22.20;99.90
14192;DHT22;7177;48.572;7.838;2022-07-06T07:05:56;22.30;99.90
14192;DHT22;7177;48.572;7.838;2022-07-06T07:08:21;22.30;99.90
14192;DHT22;7177;48.572;7.838;2022-07-06T07:10:47;22.20;99.90
14192;DHT22;7177;48.572;7.838;2022-07-06T07:13:13;22.30;99.90
14192;DHT22;7177;48.572;7.838;2022-07-06T07:15:38;22.40;99.90
14192;DHT22;7177;48.572;7.838;2022-07-06T07:18:04;22.50;99.90
14192;DHT22;7177;48.572;7.838;2022-07-06T07:20:29;22.70;99.90
14192;DHT22;7177;48.572;7.838;2022-07-06T07:22:56;22.70;99.90
14192;DHT22;7177;48.572;7.838;2022-07-06T07:25:22;23.00;99.90
14192;DHT22;7177;48.572;7.838;2022-07-06T07:27:47;23.20;99.90
14192;DHT22;7177;48.572;7.838;2022-07-06T07:30:13;23.30;99.90
14192;DHT22;7177;48.572;7.838;2022-07-06T07:32:39;23.40;99.90
14192;DHT22;7177;48.572;7.838;2022-07-06T07:35:08;23.80;99.90
14192;DHT22;7177;48.572;7.838;2022-07-06T07:37:34;23.80;99.90
14192;DHT22;7177;48.572;7.838;2022-07-06T07:39:59;23.80;99.90
14192;DHT22;7177;48.572;7.838;2022-07-06T07:42:25;24.00;99.90
14192;DHT22;7177;48.572;7.838;2022-07-06T07:44:51;24.20;99.90
14192;DHT22;7177;48.572;7.838;2022-07-06T07:47:16;24.20;99.90
14192;DHT22;7177;48.572;7.838;2022-07-06T07:49:42;24.30;99.90
14192;DHT22;7177;48.572;7.838;2022-07-06T07:52:08;24.50;99.90
14192;DHT22;7177;48.572;7.838;2022-07-06T07:54:34;24.60;99.90
14192;DHT22;7177;48.572;7.838;2022-07-06T07:56:59;24.80;99.90
14192;DHT22;7177;48.572;7.838;2022-07-06T07:59:25;24.80;99.90
14192;DHT22;7177;48.572;7.838;2022-07-06T08:01:51;25.10;99.90
14192;DHT22;7177;48.572;7.838;2022-07-06T08:04:16;25.30;99.90
14192;DHT22;7177;48.572;7.838;2022-07-06T08:06:42;25.10;99.90
14192;DHT22;7177;48.572;7.838;2022-07-06T08:09:07;25.00;99.90
14192;DHT22;7177;48.572;7.838;2022-07-06T08:11:34;24.80;99.90
14192;DHT22;7177;48.572;7.838;2022-07-06T08:14:00;24.80;99.90
14192;DHT22;7177;48.572;7.838;2022-07-06T08:16:25;24.90;99.90
14192;DHT22;7177;48.572;7.838;2022-07-06T08:18:51;25.20;99.50
14192;DHT22;7177;48.572;7.838;2022-07-06T08:21:17;25.30;99.30
14192;DHT22;7177;48.572;7.838;2022-07-06T08:23:43;25.50;99.50
14192;DHT22;7177;48.572;7.838;2022-07-06T08:26:08;25.70;98.80
14192;DHT22;7177;48.572;7.838;2022-07-06T08:28:34;25.60;98.10
14192;DHT22;7177;48.572;7.838;2022-07-06T08:30:59;25.60;98.70
14192;DHT22;7177;48.572;7.838;2022-07-06T08:33:25;25.70;98.50
14192;DHT22;7177;48.572;7.838;2022-07-06T08:35:50;26.00;98.20
14192;DHT22;7177;48.572;7.838;2022-07-06T08:38:16;26.10;97.40
14192;DHT22;7177;48.572;7.838;2022-07-06T08:40:43;26.10;97.10
14192;DHT22;7177;48.572;7.838;2022-07-06T08:43:11;26.20;96.40
14192;DHT22;7177;48.572;7.838;2022-07-06T08:45:37;26.20;96.40
14192;DHT22;7177;48.572;7.838;2022-07-06T08:48:06;26.40;95.90
14192;DHT22;7177;48.572;7.838;2022-07-06T08:50:33;26.60;95.20
14192;DHT22;7177;48.572;7.838;2022-07-06T08:52:59;26.60;95.80
14192;DHT22;7177;48.572;7.838;2022-07-06T08:55:26;26.60;95.70
14192;DHT22;7177;48.572;7.838;2022-07-06T08:57:55;26.80;94.80
14192;DHT22;7177;48.572;7.838;2022-07-06T09:00:21;27.10;94.10
14192;DHT22;7177;48.572;7.838;2022-07-06T09:02:46;27.40;93.60
14192;DHT22;7177;48.572;7.838;2022-07-06T09:05:15;27.80;93.50
14192;DHT22;7177;48.572;7.838;2022-07-06T09:07:42;27.70;93.30
14192;DHT22;7177;48.572;7.838;2022-07-06T09:10:09;27.80;92.80
14192;DHT22;7177;48.572;7.838;2022-07-06T09:12:34;27.90;92.90
14192;DHT22;7177;48.572;7.838;2022-07-06T09:15:00;28.10;92.70
14192;DHT22;7177;48.572;7.838;2022-07-06T09:17:29;28.00;92.20
14192;DHT22;7177;48.572;7.838;2022-07-06T09:19:56;28.10;91.70
14192;DHT22;7177;48.572;7.838;2022-07-06T09:22:29;28.30;92.00
14192;DHT22;7177;48.572;7.838;2022-07-06T09:25:11;28.60;91.30
14192;DHT22;7177;48.572;7.838;2022-07-06T09:27:38;28.50;91.50
14192;DHT22;7177;48.572;7.838;2022-07-06T09:30:06;28.60;91.50
14192;DHT22;7177;48.572;7.838;2022-07-06T09:32:38;28.50;90.70
14192;DHT22;7177;48.572;7.838;2022-07-06T09:35:04;28.40;91.80
14192;DHT22;7177;48.572;7.838;2022-07-06T09:37:30;28.00;91.30
14192;DHT22;7177;48.572;7.838;2022-07-06T09:39:55;27.70;91.20
14192;DHT22;7177;48.572;7.838;2022-07-06T09:42:25;27.70;92.10
14192;DHT22;7177;48.572;7.838;2022-07-06T09:44:52;27.90;91.20
14192;DHT22;7177;48.572;7.838;2022-07-06T09:47:18;28.20;90.40
14192;DHT22;7177;48.572;7.838;2022-07-06T09:49:46;28.50;91.00
14192;DHT22;7177;48.572;7.838;2022-07-06T09:52:13;28.80;90.80
14192;DHT22;7177;48.572;7.838;2022-07-06T09:54:40;29.40;90.10
14192;DHT22;7177;48.572;7.838;2022-07-06T09:57:06;29.70;87.80
14192;DHT22;7177;48.572;7.838;2022-07-06T09:59:34;29.90;87.00
14192;DHT22;7177;48.572;7.838;2022-07-06T10:02:03;29.70;86.60
14192;DHT22;7177;48.572;7.838;2022-07-06T10:04:29;29.10;86.40
14192;DHT22;7177;48.572;7.838;2022-07-06T10:06:56;28.20;89.00
14192;DHT22;7177;48.572;7.838;2022-07-06T10:09:23;27.20;91.10
14192;DHT22;7177;48.572;7.838;2022-07-06T10:11:51;26.60;91.80
14192;DHT22;7177;48.572;7.838;2022-07-06T10:14:23;26.10;92.60
14192;DHT22;7177;48.572;7.838;2022-07-06T10:16:49;26.50;91.90
14192;DHT22;7177;48.572;7.838;2022-07-06T10:19:17;27.30;90.70
14192;DHT22;7177;48.572;7.838;2022-07-06T10:21:44;28.40;88.20
14192;DHT22;7177;48.572;7.838;2022-07-06T10:24:10;29.40;87.30
14192;DHT22;7177;48.572;7.838;2022-07-06T10:26:38;29.90;85.90
14192;DHT22;7177;48.572;7.838;2022-07-06T10:29:05;30.10;85.10
14192;DHT22;7177;48.572;7.838;2022-07-06T10:31:33;29.90;82.70
14192;DHT22;7177;48.572;7.838;2022-07-06T10:34:01;29.60;84.70
14192;DHT22;7177;48.572;7.838;2022-07-06T10:36:28;29.70;85.30
14192;DHT22;7177;48.572;7.838;2022-07-06T10:38:54;29.40;83.90
14192;DHT22;7177;48.572;7.838;2022-07-06T10:41:34;29.40;85.10
14192;DHT22;7177;48.572;7.838;2022-07-06T10:44:18;29.90;84.80
14192;DHT22;7177;48.572;7.838;2022-07-06T10:46:56;30.20;80.90
14192;DHT22;7177;48.572;7.838;2022-07-06T10:49:24;29.40;80.60
14192;DHT22;7177;48.572;7.838;2022-07-06T10:51:49;28.40;84.30
14192;DHT22;7177;48.572;7.838;2022-07-06T10:54:16;28.00;82.80
14192;DHT22;7177;48.572;7.838;2022-07-06T10:56:49;27.80;83.40
14192;DHT22;7177;48.572;7.838;2022-07-06T10:59:23;27.90;85.30
14192;DHT22;7177;48.572;7.838;2022-07-06T11:04:40;28.80;83.80
14192;DHT22;7177;48.572;7.838;2022-07-06T11:07:14;28.40;82.80
14192;DHT22;7177;48.572;7.838;2022-07-06T11:09:40;28.40;83.60
14192;DHT22;7177;48.572;7.838;2022-07-06T11:12:17;28.50;81.30
14192;DHT22;7177;48.572;7.838;2022-07-06T11:14:47;29.00;81.30
14192;DHT22;7177;48.572;7.838;2022-07-06T11:17:13;29.40;81.70
14192;DHT22;7177;48.572;7.838;2022-07-06T11:22:15;29.50;79.30
14192;DHT22;7177;48.572;7.838;2022-07-06T11:24:41;29.00;79.70
14192;DHT22;7177;48.572;7.838;2022-07-06T11:27:07;28.80;81.00
14192;DHT22;7177;48.572;7.838;2022-07-06T11:29:34;28.80;79.30
14192;DHT22;7177;48.572;7.838;2022-07-06T11:32:03;28.50;81.20
14192;DHT22;7177;48.572;7.838;2022-07-06T11:34:32;27.80;82.50
14192;DHT22;7177;48.572;7.838;2022-07-06T11:37:03;27.60;84.60
14192;DHT22;7177;48.572;7.838;2022-07-06T11:39:33;27.90;84.30
14192;DHT22;7177;48.572;7.838;2022-07-06T11:42:00;28.70;83.00
14192;DHT22;7177;48.572;7.838;2022-07-06T11:44:26;29.10;81.50
14192;DHT22;7177;48.572;7.838;2022-07-06T11:46:52;29.70;81.00
14192;DHT22;7177;48.572;7.838;2022-07-06T11:49:20;30.30;79.90
14192;DHT22;7177;48.572;7.838;2022-07-06T11:51:46;30.70;77.90
14192;DHT22;7177;48.572;7.838;2022-07-06T11:54:15;31.30;75.20
14192;DHT22;7177;48.572;7.838;2022-07-06T11:56:49;31.50;73.00
14192;DHT22;7177;48.572;7.838;2022-07-06T11:59:23;31.60;73.10
14192;DHT22;7177;48.572;7.838;2022-07-06T12:01:56;31.70;73.70
14192;DHT22;7177;48.572;7.838;2022-07-06T12:04:24;32.30;70.10
14192;DHT22;7177;48.572;7.838;2022-07-06T12:06:50;31.80;69.70
14192;DHT22;7177;48.572;7.838;2022-07-06T12:09:15;30.80;71.70
14192;DHT22;7177;48.572;7.838;2022-07-06T12:11:44;30.30;72.20
14192;DHT22;7177;48.572;7.838;2022-07-06T12:14:17;30.40;71.80
14192;DHT22;7177;48.572;7.838;2022-07-06T12:16:43;31.00;71.20
14192;DHT22;7177;48.572;7.838;2022-07-06T12:19:08;31.50;68.60
14192;DHT22;7177;48.572;7.838;2022-07-06T12:21:45;31.70;68.50
14192;DHT22;7177;48.572;7.838;2022-07-06T12:24:18;31.60;68.70
14192;DHT22;7177;48.572;7.838;2022-07-06T12:26:43;32.00;69.50
14192;DHT22;7177;48.572;7.838;2022-07-06T12:29:10;31.90;68.60
14192;DHT22;7177;48.572;7.838;2022-07-06T12:31:58;31.00;68.40
14192;DHT22;7177;48.572;7.838;2022-07-06T12:34:26;30.50;69.50
14192;DHT22;7177;48.572;7.838;2022-07-06T12:36:54;30.40;68.70
14192;DHT22;7177;48.572;7.838;2022-07-06T12:39:24;30.50;68.30
14192;DHT22;7177;48.572;7.838;2022-07-06T12:41:52;31.00;68.30
14192;DHT22;7177;48.572;7.838;2022-07-06T12:44:21;31.30;68.10
14192;DHT22;7177;48.572;7.838;2022-07-06T12:46:48;31.50;64.40
14192;DHT22;7177;48.572;7.838;2022-07-06T12:49:15;30.60;66.10
14192;DHT22;7177;48.572;7.838;2022-07-06T12:51:59;30.60;66.80
14192;DHT22;7177;48.572;7.838;2022-07-06T12:54:30;31.10;66.10
14192;DHT22;7177;48.572;7.838;2022-07-06T12:57:21;31.20;65.40
14192;DHT22;7177;48.572;7.838;2022-07-06T13:02:30;31.30;64.90
14192;DHT22;7177;48.572;7.838;2022-07-06T13:04:59;31.40;63.50
14192;DHT22;7177;48.572;7.838;2022-07-06T13:07:26;31.60;64.80
14192;DHT22;7177;48.572;7.838;2022-07-06T13:09:53;31.40;62.50
14192;DHT22;7177;48.572;7.838;2022-07-06T13:12:20;31.60;62.20
14192;DHT22;7177;48.572;7.838;2022-07-06T13:14:46;31.50;62.10
14192;DHT22;7177;48.572;7.838;2022-07-06T13:17:12;31.50;58.90
14192;DHT22;7177;48.572;7.838;2022-07-06T13:19:37;31.40;59.30
14192;DHT22;7177;48.572;7.838;2022-07-06T13:22:03;31.50;60.40
14192;DHT22;7177;48.572;7.838;2022-07-06T13:24:29;31.50;59.20
14192;DHT22;7177;48.572;7.838;2022-07-06T13:26:55;31.60;58.30
14192;DHT22;7177;48.572;7.838;2022-07-06T13:29:21;31.60;58.20
14192;DHT22;7177;48.572;7.838;2022-07-06T13:31:46;31.40;57.40
14192;DHT22;7177;48.572;7.838;2022-07-06T13:34:12;30.80;57.70
14192;DHT22;7177;48.572;7.838;2022-07-06T13:36:39;30.80;57.80
14192;DHT22;7177;48.572;7.838;2022-07-06T13:39:06;30.60;56.90
14192;DHT22;7177;48.572;7.838;2022-07-06T13:41:32;30.90;56.40
14192;DHT22;7177;48.572;7.838;2022-07-06T13:43:57;31.00;55.70
14192;DHT22;7177;48.572;7.838;2022-07-06T13:46:26;31.20;55.80
14192;DHT22;7177;48.572;7.838;2022-07-06T13:48:52;31.20;55.10
14192;DHT22;7177;48.572;7.838;2022-07-06T13:51:18;30.80;54.90
14192;DHT22;7177;48.572;7.838;2022-07-06T13:53:43;30.60;54.70
14192;DHT22;7177;48.572;7.838;2022-07-06T13:56:09;30.40;53.90
14192;DHT22;7177;48.572;7.838;2022-07-06T13:58:34;30.20;53.10
14192;DHT22;7177;48.572;7.838;2022-07-06T14:01:00;29.60;54.20
14192;DHT22;7177;48.572;7.838;2022-07-06T14:03:25;29.40;54.90
14192;DHT22;7177;48.572;7.838;2022-07-06T14:05:58;29.30;54.60
14192;DHT22;7177;48.572;7.838;2022-07-06T14:08:24;28.90;53.70
14192;DHT22;7177;48.572;7.838;2022-07-06T14:10:51;28.40;55.50
14192;DHT22;7177;48.572;7.838;2022-07-06T14:13:16;28.20;55.10
14192;DHT22;7177;48.572;7.838;2022-07-06T14:15:43;28.00;55.00
14192;DHT22;7177;48.572;7.838;2022-07-06T14:18:08;28.00;55.30
14192;DHT22;7177;48.572;7.838;2022-07-06T14:20:34;28.00;55.10
14192;DHT22;7177;48.572;7.838;2022-07-06T14:22:59;28.20;56.50
14192;DHT22;7177;48.572;7.838;2022-07-06T14:25:25;28.50;55.10
14192;DHT22;7177;48.572;7.838;2022-07-06T14:27:50;28.90;55.20
14192;DHT22;7177;48.572;7.838;2022-07-06T14:30:16;28.90;54.30
14192;DHT22;7177;48.572;7.838;2022-07-06T14:32:41;28.90;55.10
14192;DHT22;7177;48.572;7.838;2022-07-06T14:35:09;29.00;55.30
14192;DHT22;7177;48.572;7.838;2022-07-06T14:37:35;29.30;54.30
14192;DHT22;7177;48.572;7.838;2022-07-06T14:40:01;29.70;52.80
14192;DHT22;7177;48.572;7.838;2022-07-06T14:42:26;29.80;52.20
14192;DHT22;7177;48.572;7.838;2022-07-06T14:44:52;29.70;51.90
14192;DHT22;7177;48.572;7.838;2022-07-06T14:47:17;29.60;52.90
14192;DHT22;7177;48.572;7.838;2022-07-06T14:49:43;29.50;53.20
14192;DHT22;7177;48.572;7.838;2022-07-06T14:52:08;29.60;51.70
14192;DHT22;7177;48.572;7.838;2022-07-06T14:54:35;29.80;50.70
14192;DHT22;7177;48.572;7.838;2022-07-06T14:57:02;30.00;51.20
14192;DHT22;7177;48.572;7.838;2022-07-06T14:59:32;30.30;50.60
14192;DHT22;7177;48.572;7.838;2022-07-06T15:01:58;30.50;50.30
14192;DHT22;7177;48.572;7.838;2022-07-06T15:04:23;30.30;50.20
14192;DHT22;7177;48.572;7.838;2022-07-06T15:06:49;30.20;49.80
14192;DHT22;7177;48.572;7.838;2022-07-06T15:09:15;30.00;48.20
14192;DHT22;7177;48.572;7.838;2022-07-06T15:11:41;30.30;47.30
14192;DHT22;7177;48.572;7.838;2022-07-06T15:14:07;30.30;49.10
14192;DHT22;7177;48.572;7.838;2022-07-06T15:16:33;30.10;49.30
14192;DHT22;7177;48.572;7.838;2022-07-06T15:18:59;29.40;49.90
14192;DHT22;7177;48.572;7.838;2022-07-06T15:21:24;29.10;52.40
14192;DHT22;7177;48.572;7.838;2022-07-06T15:23:50;28.70;52.90
14192;DHT22;7177;48.572;7.838;2022-07-06T15:26:16;28.20;52.70
14192;DHT22;7177;48.572;7.838;2022-07-06T15:28:41;28.00;54.20
14192;DHT22;7177;48.572;7.838;2022-07-06T15:31:07;27.80;53.90
14192;DHT22;7177;48.572;7.838;2022-07-06T15:33:32;27.60;54.60
14192;DHT22;7177;48.572;7.838;2022-07-06T15:35:58;27.60;55.10
14192;DHT22;7177;48.572;7.838;2022-07-06T15:38:23;27.60;54.50
14192;DHT22;7177;48.572;7.838;2022-07-06T15:40:49;27.50;55.30
14192;DHT22;7177;48.572;7.838;2022-07-06T15:43:21;27.50;55.90
14192;DHT22;7177;48.572;7.838;2022-07-06T15:45:47;27.60;55.70
14192;DHT22;7177;48.572;7.838;2022-07-06T15:48:13;27.60;55.20
14192;DHT22;7177;48.572;7.838;2022-07-06T15:50:38;27.80;55.10